createdAt,value
2023-04-24T00:02:02.370Z,15.56
2023-04-24T00:04:33.007Z,15.50
2023-04-24T00:07:01.092Z,15.76
2023-04-24T00:09:28.294Z,15.66
2023-04-24T00:11:58.378Z,15.78
2023-04-24T00:14:27.718Z,15.71
2023-04-24T00:16:56.931Z,15.60
2023-04-24T00:19:23.867Z,15.73
2023-04-24T00:21:51.141Z,15.48
2023-04-24T00:24:19.158Z,15.62
2023-04-24T00:26:46.070Z,15.62
2023-04-24T00:29:15.591Z,15.45
2023-04-24T00:31:42.692Z,15.25
2023-04-24T00:34:09.730Z,15.25
2023-04-24T00:36:38.941Z,15.25
2023-04-24T00:39:05.931Z,15.44
2023-04-24T00:41:33.153Z,15.53
2023-04-24T00:44:00.044Z,15.44
2023-04-24T00:46:27.253Z,15.67
2023-04-24T00:48:59.413Z,15.75
2023-04-24T00:51:26.354Z,15.83
2023-04-24T00:53:53.295Z,15.81
2023-04-24T00:56:20.917Z,15.47
2023-04-24T00:58:48.830Z,15.63
2023-04-24T01:01:19.316Z,15.39
2023-04-24T01:03:49.527Z,15.30
2023-04-24T01:06:16.943Z,15.34
2023-04-24T01:08:46.494Z,15.34
2023-04-24T01:11:13.409Z,15.13
2023-04-24T01:13:41.471Z,14.95
2023-04-24T01:16:10.949Z,15.06
2023-04-24T01:18:39.218Z,15.02
2023-04-24T01:21:08.220Z,15.15
2023-04-24T01:23:37.474Z,14.88
2023-04-24T01:26:07.889Z,14.77
2023-04-24T01:28:35.137Z,14.79
2023-04-24T01:31:04.167Z,14.72
2023-04-24T01:33:31.237Z,14.86
2023-04-24T01:35:58.783Z,14.69
2023-04-24T01:38:28.308Z,14.76
2023-04-24T01:40:55.254Z,14.78
2023-04-24T01:43:25.480Z,14.82
2023-04-24T01:45:56.978Z,14.85
2023-04-24T01:48:23.960Z,14.86
2023-04-24T01:50:51.014Z,14.94
2023-04-24T01:53:20.678Z,14.73
2023-04-24T01:55:48.052Z,14.73
2023-04-24T01:58:15.063Z,14.86
2023-04-24T02:00:42.068Z,14.93
2023-04-24T02:03:09.159Z,14.74
2023-04-24T02:05:40.757Z,14.64
2023-04-24T02:08:07.855Z,14.79
2023-04-24T02:10:34.761Z,14.93
2023-04-24T02:13:01.691Z,14.80
2023-04-24T02:15:31.224Z,14.60
2023-04-24T02:17:58.348Z,14.69
2023-04-24T02:20:25.257Z,14.95
2023-04-24T02:22:56.842Z,14.65
2023-04-24T02:25:23.853Z,14.73
2023-04-24T02:27:50.857Z,14.86
2023-04-24T02:30:20.737Z,14.79
2023-04-24T02:32:47.548Z,14.75
2023-04-24T02:35:14.464Z,14.83
2023-04-24T02:37:43.862Z,14.52
2023-04-24T02:40:10.833Z,14.39
2023-04-24T02:42:39.967Z,14.52
2023-04-24T02:45:07.720Z,14.11
2023-04-24T02:47:34.622Z,14.16
2023-04-24T02:50:04.481Z,14.24
2023-04-24T02:52:33.825Z,13.90
2023-04-24T02:55:00.734Z,13.85
2023-04-24T02:57:27.622Z,13.78
2023-04-24T02:59:54.497Z,14.06
2023-04-24T03:02:23.938Z,13.96
2023-04-24T03:04:50.933Z,13.95
2023-04-24T03:07:17.885Z,14.05
2023-04-24T03:09:47.265Z,14.02
2023-04-24T03:12:18.705Z,13.74
2023-04-24T03:14:45.683Z,13.46
2023-04-24T03:17:12.488Z,13.83
2023-04-24T03:19:39.927Z,13.62
2023-04-24T03:22:06.816Z,13.58
2023-04-24T03:24:38.241Z,13.62
2023-04-24T03:27:07.696Z,13.67
2023-04-24T03:29:34.525Z,13.74
2023-04-24T03:32:01.797Z,13.54
2023-04-24T03:34:29.151Z,13.24
2023-04-24T03:36:58.238Z,13.30
2023-04-24T03:39:29.716Z,13.36
2023-04-24T03:41:59.014Z,13.52
2023-04-24T03:44:28.331Z,13.45
2023-04-24T03:46:55.308Z,13.53
2023-04-24T03:49:24.610Z,13.35
2023-04-24T03:51:51.671Z,13.38
2023-04-24T03:54:18.798Z,13.14
2023-04-24T03:56:48.188Z,13.29
2023-04-24T03:59:15.157Z,13.51
2023-04-24T04:01:44.926Z,13.32
2023-04-24T04:04:12.290Z,13.39
2023-04-24T04:06:39.373Z,13.44
2023-04-24T04:09:11.432Z,13.30
2023-04-24T04:11:38.486Z,13.28
2023-04-24T04:14:07.895Z,13.46
2023-04-24T04:16:34.821Z,13.52
2023-04-24T04:19:04.236Z,13.53
2023-04-24T04:21:32.271Z,13.57
2023-04-24T04:23:59.570Z,13.52
2023-04-24T04:26:26.525Z,13.34
2023-04-24T04:28:54.066Z,13.25
2023-04-24T04:31:22.040Z,13.35
2023-04-24T04:33:51.409Z,13.30
2023-04-24T04:36:20.818Z,13.27
2023-04-24T04:38:47.683Z,13.30
2023-04-24T04:41:14.552Z,13.25
2023-04-24T04:43:43.677Z,13.40
2023-04-24T04:46:11.719Z,13.51
2023-04-24T04:48:41.361Z,13.51
2023-04-24T04:51:08.253Z,13.46
2023-04-24T04:53:37.581Z,13.38
2023-04-24T04:56:04.561Z,13.29
2023-04-24T04:58:31.723Z,13.09
2023-04-24T05:00:58.617Z,13.11
2023-04-24T05:03:25.901Z,13.20
2023-04-24T05:05:55.175Z,13.39
2023-04-24T05:08:27.605Z,13.47
2023-04-24T05:10:56.345Z,13.51
2023-04-24T05:13:35.585Z,13.77
2023-04-24T05:16:05.805Z,13.64
2023-04-24T05:18:32.664Z,13.57
2023-04-24T05:20:59.558Z,13.43
2023-04-24T05:23:26.516Z,13.50
2023-04-24T05:25:53.430Z,13.38
2023-04-24T05:28:20.865Z,13.58
2023-04-24T05:30:47.863Z,13.50
2023-04-24T05:33:15.128Z,13.40
2023-04-24T05:35:47.413Z,13.55
2023-04-24T05:38:14.640Z,13.31
2023-04-24T05:40:41.713Z,13.47
2023-04-24T05:43:10.906Z,13.56
2023-04-24T05:45:39.922Z,13.64
2023-04-24T05:48:09.445Z,13.57
2023-04-24T05:50:38.591Z,13.54
2023-04-24T05:53:05.435Z,13.45
2023-04-24T05:55:32.854Z,13.58
2023-04-24T05:58:02.335Z,13.51
2023-04-24T06:00:30.056Z,13.26
2023-04-24T06:03:01.927Z,13.56
2023-04-24T06:05:31.783Z,13.72
2023-04-24T06:07:58.740Z,14.06
2023-04-24T06:10:25.736Z,14.32
2023-04-24T06:12:52.596Z,14.28
2023-04-24T06:15:19.567Z,14.13
2023-04-24T06:17:46.486Z,14.33
2023-04-24T06:20:13.500Z,14.03
2023-04-24T06:22:40.996Z,14.25
2023-04-24T06:25:08.635Z,14.37
2023-04-24T06:27:36.218Z,14.63
2023-04-24T06:30:03.831Z,14.60
2023-04-24T06:32:31.890Z,14.40
2023-04-24T06:34:59.572Z,14.47
2023-04-24T06:37:28.853Z,14.46
2023-04-24T06:39:55.734Z,14.82
2023-04-24T06:42:27.184Z,14.86
2023-04-24T06:44:54.771Z,14.97
2023-04-24T06:47:24.611Z,14.90
2023-04-24T06:49:53.390Z,14.93
2023-04-24T06:52:20.788Z,14.74
2023-04-24T06:54:48.038Z,14.68
2023-04-24T06:57:15.162Z,14.93
2023-04-24T06:59:47.493Z,15.31
2023-04-24T07:02:14.603Z,15.56
2023-04-24T07:04:44.635Z,16.10
2023-04-24T07:07:15.132Z,16.26
2023-04-24T07:09:43.919Z,16.24
2023-04-24T07:12:14.412Z,15.98
2023-04-24T07:14:41.741Z,15.91
2023-04-24T07:17:11.049Z,16.25
2023-04-24T07:19:37.954Z,16.63
2023-04-24T07:22:04.844Z,17.36
2023-04-24T07:24:33.637Z,17.02
2023-04-24T07:27:02.932Z,17.08
2023-04-24T07:29:29.824Z,16.89
2023-04-24T07:31:57.599Z,16.60
2023-04-24T07:34:27.178Z,16.40
2023-04-24T07:36:57.020Z,16.47
2023-04-24T07:39:24.918Z,16.86
2023-04-24T07:41:51.799Z,16.54
2023-04-24T07:44:18.716Z,16.52
2023-04-24T07:46:45.974Z,16.46
2023-04-24T07:49:14.142Z,16.60
2023-04-24T07:51:45.814Z,16.33
2023-04-24T07:54:15.352Z,16.84
2023-04-24T07:56:43.994Z,17.55
2023-04-24T07:59:11.890Z,18.06
2023-04-24T08:01:39.307Z,18.12
2023-04-24T08:04:08.828Z,16.94
2023-04-24T08:06:36.176Z,17.03
2023-04-24T08:09:03.051Z,17.08
2023-04-24T08:11:30.092Z,17.23
2023-04-24T08:13:57.136Z,17.23
2023-04-24T08:16:26.618Z,17.51
2023-04-24T08:18:54.556Z,17.51
2023-04-24T08:21:28.147Z,17.34
2023-04-24T08:23:57.375Z,16.67
2023-04-24T08:26:24.339Z,16.23
2023-04-24T08:28:55.983Z,16.48
2023-04-24T08:31:25.982Z,16.46
2023-04-24T08:33:55.940Z,16.30
2023-04-24T08:36:36.020Z,16.57
2023-04-24T08:39:15.366Z,16.71
2023-04-24T08:41:44.361Z,16.84
2023-04-24T08:44:17.225Z,16.55
2023-04-24T08:46:48.643Z,16.58
2023-04-24T08:49:19.843Z,16.55
2023-04-24T08:51:48.601Z,16.77
2023-04-24T08:54:15.972Z,17.00
2023-04-24T08:56:45.958Z,17.46
2023-04-24T08:59:16.785Z,17.57
2023-04-24T09:01:48.662Z,17.18
2023-04-24T09:04:19.234Z,17.07
2023-04-24T09:06:49.029Z,16.82
2023-04-24T09:09:20.037Z,17.19
2023-04-24T09:11:48.055Z,17.11
2023-04-24T09:14:15.386Z,17.19
2023-04-24T09:16:43.073Z,17.43
2023-04-24T09:19:10.001Z,17.22
2023-04-24T09:21:37.283Z,17.18
2023-04-24T09:24:23.651Z,17.19
2023-04-24T09:26:59.661Z,17.07
2023-04-24T09:29:29.612Z,17.09
2023-04-24T09:31:56.829Z,16.52
2023-04-24T09:34:27.072Z,17.09
2023-04-24T09:36:54.535Z,17.22
2023-04-24T09:39:23.616Z,17.51
2023-04-24T09:42:01.893Z,17.93
2023-04-24T09:44:29.669Z,18.32
2023-04-24T09:47:03.142Z,19.27
2023-04-24T09:49:34.367Z,19.71
2023-04-24T09:52:10.939Z,18.87
2023-04-24T09:54:41.456Z,18.70
2023-04-24T09:57:16.820Z,18.37
2023-04-24T09:59:49.069Z,17.66
2023-04-24T10:02:20.982Z,17.46
2023-04-24T10:05:00.309Z,16.91
2023-04-24T10:07:30.129Z,16.18
2023-04-24T10:10:07.845Z,17.29
2023-04-24T10:12:35.044Z,17.85
2023-04-24T10:15:03.929Z,17.94
2023-04-24T10:17:38.909Z,17.64
2023-04-24T10:20:07.687Z,17.38
2023-04-24T10:22:34.905Z,17.72
2023-04-24T10:25:06.439Z,17.80
2023-04-24T10:27:34.328Z,18.22
2023-04-24T10:30:03.416Z,18.61
2023-04-24T10:32:31.096Z,18.67
2023-04-24T10:35:01.040Z,18.39
2023-04-24T10:37:39.017Z,18.38
2023-04-24T10:40:08.735Z,18.99
2023-04-24T10:42:44.753Z,18.55
2023-04-24T10:45:20.122Z,18.20
2023-04-24T10:48:18.630Z,17.66
2023-04-24T10:50:48.398Z,17.47
2023-04-24T10:53:21.330Z,16.67
2023-04-24T10:55:49.727Z,17.16
2023-04-24T10:58:18.000Z,17.30
2023-04-24T11:00:46.152Z,18.22
2023-04-24T11:03:26.057Z,18.69
2023-04-24T11:06:06.233Z,18.69
2023-04-24T11:08:49.976Z,19.09
2023-04-24T11:11:22.075Z,18.39
2023-04-24T11:13:59.775Z,17.63
2023-04-24T11:16:41.010Z,17.08
2023-04-24T11:19:17.503Z,16.96
2023-04-24T11:21:49.915Z,17.58
2023-04-24T11:24:31.922Z,17.57
2023-04-24T11:27:10.596Z,17.13
2023-04-24T11:29:49.901Z,17.48
2023-04-24T11:32:47.257Z,18.28
2023-04-24T11:35:17.425Z,17.98
2023-04-24T11:40:24.734Z,17.89
2023-04-24T11:42:53.958Z,18.50
2023-04-24T11:45:26.280Z,18.38
2023-04-24T11:47:53.413Z,17.79
2023-04-24T11:50:24.317Z,18.10
2023-04-24T11:52:51.796Z,17.91
2023-04-24T11:55:21.123Z,17.32
2023-04-24T11:57:51.104Z,17.13
2023-04-24T12:00:39.228Z,16.87
2023-04-24T12:03:11.265Z,16.21
2023-04-24T12:05:39.994Z,16.44
2023-04-24T12:08:07.659Z,16.23
2023-04-24T12:10:39.715Z,15.93
2023-04-24T12:13:06.706Z,16.13
2023-04-24T12:15:35.897Z,16.29
2023-04-24T12:18:02.888Z,16.62
2023-04-24T12:20:33.931Z,16.11
2023-04-24T12:23:02.331Z,16.15
2023-04-24T12:25:34.053Z,16.29
2023-04-24T12:28:07.378Z,16.55
2023-04-24T12:30:49.523Z,16.44
2023-04-24T12:33:23.015Z,17.05
2023-04-24T12:35:56.449Z,16.68
2023-04-24T12:38:40.948Z,17.01
2023-04-24T12:41:11.592Z,17.36
2023-04-24T12:43:43.470Z,16.83
2023-04-24T12:46:10.409Z,16.85
2023-04-24T12:48:37.696Z,16.85
2023-04-24T12:51:07.081Z,17.22
2023-04-24T12:53:43.506Z,16.94
2023-04-24T12:56:13.032Z,16.64
2023-04-24T12:58:42.920Z,16.51
2023-04-24T13:01:09.818Z,16.58
2023-04-24T13:03:39.315Z,16.33
2023-04-24T13:06:06.574Z,15.98
2023-04-24T13:08:33.399Z,15.63
2023-04-24T13:11:02.737Z,15.67
2023-04-24T13:13:32.358Z,15.48
2023-04-24T13:16:06.413Z,15.21
2023-04-24T13:18:33.267Z,15.45
2023-04-24T13:21:00.527Z,15.63
2023-04-24T13:23:30.232Z,15.26
2023-04-24T13:26:00.237Z,15.54
2023-04-24T13:28:27.202Z,15.30
2023-04-24T13:30:56.434Z,15.34
2023-04-24T13:33:28.065Z,15.52
2023-04-24T13:35:57.293Z,15.29
2023-04-24T13:38:29.753Z,15.98
2023-04-24T13:40:58.933Z,16.06
2023-04-24T13:43:25.828Z,15.90
2023-04-24T13:45:52.763Z,15.48
2023-04-24T13:48:19.846Z,15.91
2023-04-24T13:50:49.272Z,16.37
2023-04-24T13:53:16.485Z,16.53
2023-04-24T13:55:45.657Z,16.74
2023-04-24T13:58:12.616Z,16.14
2023-04-24T14:00:39.722Z,15.92
2023-04-24T14:03:06.796Z,15.82
2023-04-24T14:05:33.873Z,15.89
2023-04-24T14:08:00.938Z,15.80
2023-04-24T14:10:29.951Z,15.08
2023-04-24T14:12:59.781Z,14.73
2023-04-24T14:15:28.867Z,14.77
2023-04-24T14:17:55.884Z,14.78
2023-04-24T14:20:25.046Z,14.86
2023-04-24T14:22:55.024Z,15.15
2023-04-24T14:25:23.558Z,14.54
2023-04-24T14:27:52.812Z,14.63
2023-04-24T14:30:20.367Z,14.72
2023-04-24T14:32:50.653Z,14.72
2023-04-24T14:35:17.684Z,15.22
2023-04-24T14:37:47.017Z,14.81
2023-04-24T14:40:31.975Z,15.17
2023-04-24T14:43:03.502Z,14.78
2023-04-24T14:45:34.980Z,14.74
2023-04-24T14:48:01.860Z,14.34
2023-04-24T14:50:29.228Z,14.38
2023-04-24T14:53:00.045Z,14.08
2023-04-24T14:55:27.320Z,13.54
2023-04-24T14:57:54.519Z,13.59
2023-04-24T15:00:25.110Z,13.69
2023-04-24T15:02:52.449Z,13.48
2023-04-24T15:05:23.021Z,13.18
2023-04-24T15:07:50.304Z,13.56
2023-04-24T15:10:18.530Z,13.48
2023-04-24T15:12:48.012Z,13.56
2023-04-24T15:15:14.985Z,13.38
2023-04-24T15:17:46.583Z,12.99
2023-04-24T15:20:13.800Z,13.03
2023-04-24T15:22:40.786Z,13.01
2023-04-24T15:25:08.408Z,12.75
2023-04-24T15:27:46.325Z,12.40
2023-04-24T15:30:14.853Z,12.46
2023-04-24T15:32:42.037Z,12.82
2023-04-24T15:35:11.079Z,13.20
2023-04-24T15:37:40.548Z,13.45
2023-04-24T15:40:08.484Z,13.48
2023-04-24T15:42:38.488Z,13.37
2023-04-24T15:45:05.870Z,13.11
2023-04-24T15:47:33.961Z,13.25
2023-04-24T15:50:03.923Z,13.57
2023-04-24T15:52:33.242Z,13.71
2023-04-24T15:55:06.651Z,13.66
2023-04-24T15:57:33.751Z,13.49
2023-04-24T16:00:00.859Z,12.93
2023-04-24T16:02:28.079Z,12.21
2023-04-24T16:04:55.483Z,12.29
2023-04-24T16:07:22.431Z,12.26
2023-04-24T16:09:51.369Z,12.26
2023-04-24T16:12:18.316Z,12.04
2023-04-24T16:14:45.248Z,11.63
2023-04-24T16:17:14.426Z,11.70
2023-04-24T16:19:43.519Z,11.53
2023-04-24T16:22:17.454Z,11.67
2023-04-24T16:24:44.655Z,11.76
2023-04-24T16:27:14.188Z,11.67
2023-04-24T16:29:41.231Z,11.57
2023-04-24T16:32:09.220Z,11.75
2023-04-24T16:34:36.140Z,11.94
2023-04-24T16:37:03.075Z,11.86
2023-04-24T16:39:32.177Z,12.00
2023-04-24T16:42:01.846Z,11.67
2023-04-24T16:44:28.706Z,11.60
2023-04-24T16:47:00.139Z,11.57
2023-04-24T16:49:30.936Z,11.79
2023-04-24T16:51:57.861Z,11.88
2023-04-24T16:54:27.734Z,11.83
2023-04-24T16:56:54.927Z,11.72
2023-04-24T16:59:21.920Z,11.91
2023-04-24T17:01:51.057Z,11.98
2023-04-24T17:04:17.991Z,11.81
2023-04-24T17:06:47.372Z,11.78
2023-04-24T17:09:17.362Z,11.67
2023-04-24T17:11:47.167Z,11.70
2023-04-24T17:14:14.026Z,11.63
2023-04-24T17:16:41.334Z,11.53
2023-04-24T17:19:08.215Z,11.65
2023-04-24T17:21:35.138Z,11.74
2023-04-24T17:24:06.537Z,11.65
2023-04-24T17:26:33.792Z,11.72
2023-04-24T17:29:03.640Z,11.62
2023-04-24T17:31:30.586Z,11.73
2023-04-24T17:33:58.783Z,11.70
2023-04-24T17:36:27.354Z,11.60
2023-04-24T17:38:56.389Z,11.95
2023-04-24T17:41:23.281Z,11.54
2023-04-24T17:43:50.249Z,11.61
2023-04-24T17:46:17.204Z,11.51
2023-04-24T17:48:44.153Z,11.40
2023-04-24T17:51:11.050Z,11.24
2023-04-24T17:53:41.825Z,11.63
2023-04-24T17:56:11.280Z,11.77
2023-04-24T17:58:41.087Z,11.46
2023-04-24T18:01:08.014Z,11.43
2023-04-24T18:03:35.330Z,11.17
2023-04-24T18:06:05.528Z,11.16
2023-04-24T18:08:32.432Z,11.31
2023-04-24T18:11:04.322Z,11.15
2023-04-24T18:13:31.245Z,11.15
2023-04-24T18:15:58.144Z,11.22
2023-04-24T18:18:25.019Z,11.24
2023-04-24T18:20:54.236Z,11.25
2023-04-24T18:23:21.078Z,11.23
2023-04-24T18:25:50.926Z,11.32
2023-04-24T18:28:17.815Z,11.47
2023-04-24T18:30:44.641Z,11.62
2023-04-24T18:33:14.057Z,11.49
2023-04-24T18:35:41.001Z,11.26
2023-04-24T18:38:08.017Z,11.45
2023-04-24T18:40:34.900Z,11.38
2023-04-24T18:43:01.873Z,11.50
2023-04-24T18:45:29.008Z,11.20
2023-04-24T18:47:56.120Z,11.22
2023-04-24T18:50:23.074Z,11.14
2023-04-24T18:52:49.917Z,11.37
2023-04-24T18:55:16.949Z,11.33
2023-04-24T18:57:48.513Z,11.42
2023-04-24T19:00:15.896Z,11.73
2023-04-24T19:02:46.430Z,11.72
2023-04-24T19:05:13.407Z,11.35
2023-04-24T19:07:42.095Z,11.56
2023-04-24T19:10:09.926Z,11.53
2023-04-24T19:12:39.409Z,11.58
2023-04-24T19:15:07.118Z,11.38
2023-04-24T19:17:36.515Z,11.74
2023-04-24T19:20:09.063Z,11.67
2023-04-24T19:22:38.958Z,11.30
2023-04-24T19:25:08.742Z,11.33
2023-04-24T19:27:35.885Z,11.49
2023-04-24T19:30:02.745Z,11.34
2023-04-24T19:32:29.716Z,11.48
2023-04-24T19:34:58.929Z,11.68
2023-04-24T19:37:25.832Z,11.53
2023-04-24T19:39:52.699Z,11.27
2023-04-24T19:42:28.408Z,11.45
2023-04-24T19:45:01.384Z,11.46
2023-04-24T19:47:30.759Z,11.27
2023-04-24T19:50:00.008Z,11.38
2023-04-24T19:52:27.801Z,10.97
2023-04-24T19:54:58.456Z,11.38
2023-04-24T19:57:25.501Z,11.48
2023-04-24T19:59:54.761Z,11.46
2023-04-24T20:02:21.813Z,11.30
2023-04-24T20:04:48.929Z,11.40
2023-04-24T20:07:15.927Z,11.28
2023-04-24T20:09:45.025Z,11.32
2023-04-24T20:12:12.038Z,11.54
2023-04-24T20:14:38.982Z,11.13
2023-04-24T20:17:05.993Z,10.98
2023-04-24T20:19:33.024Z,11.25
2023-04-24T20:22:00.001Z,11.42
2023-04-24T20:24:26.971Z,11.40
2023-04-24T20:26:53.888Z,11.38
2023-04-24T20:29:21.182Z,11.58
2023-04-24T20:31:48.176Z,11.33
2023-04-24T20:34:17.181Z,11.36
2023-04-24T20:36:48.768Z,11.31
2023-04-24T20:39:16.942Z,11.19
2023-04-24T20:41:46.256Z,11.31
2023-04-24T20:44:13.263Z,11.26
2023-04-24T20:46:42.248Z,11.07
2023-04-24T20:49:09.327Z,11.29
2023-04-24T20:51:36.802Z,11.09
2023-04-24T20:54:06.563Z,10.86
2023-04-24T20:56:38.015Z,10.93
2023-04-24T20:59:08.169Z,11.06
2023-04-24T21:01:35.063Z,11.26
2023-04-24T21:04:01.996Z,10.90
2023-04-24T21:06:32.016Z,10.94
2023-04-24T21:09:01.486Z,10.75
2023-04-24T21:11:28.440Z,11.05
2023-04-24T21:13:55.284Z,11.14
2023-04-24T21:16:24.705Z,10.92
2023-04-24T21:18:54.329Z,10.87
2023-04-24T21:21:21.513Z,11.18
2023-04-24T21:23:48.536Z,11.56
2023-04-24T21:26:15.666Z,11.42
2023-04-24T21:28:42.868Z,10.96
2023-04-24T21:31:12.006Z,11.17
2023-04-24T21:33:39.156Z,11.25
2023-04-24T21:36:06.327Z,11.39
2023-04-24T21:38:33.370Z,11.19
2023-04-24T21:41:03.430Z,11.38
2023-04-24T21:43:44.179Z,11.29
2023-04-24T21:46:12.383Z,11.31
2023-04-24T21:48:39.290Z,11.14
2023-04-24T21:51:06.476Z,11.21
2023-04-24T21:53:35.810Z,11.35
2023-04-24T21:56:02.807Z,11.21
2023-04-24T21:58:29.662Z,11.28
2023-04-24T22:00:58.667Z,11.26
2023-04-24T22:03:28.213Z,11.05
2023-04-24T22:05:55.417Z,11.07
2023-04-24T22:08:22.789Z,11.16
2023-04-24T22:10:54.424Z,10.61
2023-04-24T22:13:23.361Z,10.87
2023-04-24T22:15:51.099Z,10.90
2023-04-24T22:18:18.719Z,11.09
2023-04-24T22:20:46.610Z,11.18
2023-04-24T22:23:13.534Z,11.06
2023-04-24T22:25:40.540Z,10.77
2023-04-24T22:28:07.396Z,10.79
2023-04-24T22:30:34.341Z,10.65
2023-04-24T22:33:04.292Z,10.71
2023-04-24T22:35:33.504Z,10.87
2023-04-24T22:38:03.401Z,10.86
2023-04-24T22:40:34.931Z,10.78
2023-04-24T22:43:01.968Z,10.98
2023-04-24T22:45:28.846Z,10.89
2023-04-24T22:47:55.829Z,10.83
2023-04-24T22:50:23.034Z,10.84
2023-04-24T22:52:49.853Z,10.99
2023-04-24T22:55:16.788Z,10.91
2023-04-24T22:57:44.045Z,10.92
2023-04-24T23:00:12.899Z,10.74
2023-04-24T23:02:43.374Z,10.63
2023-04-24T23:05:11.362Z,10.73
2023-04-24T23:07:38.849Z,10.92
2023-04-24T23:10:09.479Z,10.70
2023-04-24T23:12:39.364Z,10.85
2023-04-24T23:15:07.236Z,10.85
2023-04-24T23:17:34.135Z,11.07
2023-04-24T23:20:05.562Z,11.01
2023-04-24T23:22:32.674Z,10.71
2023-04-24T23:24:59.556Z,10.83
2023-04-24T23:27:27.102Z,10.83
2023-04-24T23:29:53.958Z,10.89
2023-04-24T23:32:20.921Z,10.92
2023-04-24T23:34:47.869Z,10.80
2023-04-24T23:37:15.515Z,10.83
2023-04-24T23:39:45.971Z,10.73
2023-04-24T23:42:12.862Z,10.72
2023-04-24T23:44:39.677Z,10.87
2023-04-24T23:47:06.629Z,11.00
2023-04-24T23:49:33.673Z,11.09
2023-04-24T23:52:00.678Z,10.94
2023-04-24T23:54:30.025Z,10.87
2023-04-24T23:56:59.232Z,11.05
2023-04-24T23:59:26.260Z,11.06
